Time;durP1;ratioP1;P1;durP2;ratioP2;P2;SDS_P1;SDS_P2;PMS_P1;PMS_P2;Temp;Humidity;BMP_temperature;BMP_pressure;BME280_temperature;BME280_humidity;BME280_pressure;Samples;Min_cycle;Max_cycle;Signal;HPM_P1;HPM_P2
2024/01/02 00:02:10;;;;;;;7.00;3.30;;;;;;;5.97;100.00;98669.97;6230664;23;20435;-96
2024/01/02 00:04:42;;;;;;;8.55;3.10;;;;;;;6.00;100.00;98680.47;6231895;23;20017;-96
2024/01/02 00:07:11;;;;;;;8.98;3.17;;;;;;;6.00;100.00;98677.84;6256421;23;20031;-94
2024/01/02 00:09:42;;;;;;;8.65;2.97;;;;;;;5.97;100.00;98659.41;6231360;23;20016;-95
2024/01/02 00:12:09;;;;;;;8.32;2.85;;;;;;;6.17;100.00;98680.31;6231264;23;20073;-95
2024/01/02 00:14:37;;;;;;;6.18;3.35;;;;;;;6.04;100.00;98652.28;6230454;23;20016;-95
2024/01/02 00:17:07;;;;;;;6.43;3.38;;;;;;;6.11;100.00;98664.53;6230973;23;20020;-95
2024/01/02 00:19:36;;;;;;;9.50;3.33;;;;;;;6.09;100.00;98658.38;6231113;23;20013;-95
2024/01/02 00:22:08;;;;;;;9.68;3.80;;;;;;;6.35;100.00;98695.97;6230939;23;20083;-95
2024/01/02 00:24:35;;;;;;;12.82;3.88;;;;;;;6.55;100.00;98734.47;6231876;23;20030;-95
2024/01/02 00:27:03;;;;;;;9.32;4.13;;;;;;;6.63;100.00;98752.88;6231188;23;20016;-96
2024/01/02 00:29:29;;;;;;;13.15;3.70;;;;;;;6.22;100.00;98693.44;6230807;23;20391;-95
2024/01/02 00:31:58;;;;;;;8.95;4.07;;;;;;;6.07;100.00;98671.63;6230302;23;20020;-95
2024/01/02 00:34:31;;;;;;;16.35;4.13;;;;;;;6.03;100.00;98661.97;6230360;23;20075;-95
2024/01/02 00:37:02;;;;;;;10.43;4.20;;;;;;;6.06;100.00;98683.06;6230534;23;20366;-96
2024/01/02 00:39:37;;;;;;;9.05;4.72;;;;;;;6.27;100.00;98713.66;6231139;23;20442;-95
2024/01/02 00:42:04;;;;;;;9.82;5.10;;;;;;;5.99;100.00;98686.66;6256063;22;20102;-95
2024/01/02 00:44:34;;;;;;;9.82;5.05;;;;;;;5.79;100.00;98665.72;6231269;23;20016;-94
2024/01/02 00:47:00;;;;;;;14.10;5.10;;;;;;;5.78;100.00;98668.34;6257294;23;20020;-95
2024/01/02 00:49:29;;;;;;;7.20;3.92;;;;;;;5.82;100.00;98676.22;6229704;23;20040;-95
2024/01/02 00:51:55;;;;;;;10.23;5.45;;;;;;;5.63;100.00;98669.38;6231292;23;20418;-95
2024/01/02 00:54:23;;;;;;;8.23;4.70;;;;;;;5.73;100.00;98666.63;6231332;23;20494;-95
2024/01/02 00:56:53;;;;;;;13.32;4.85;;;;;;;5.85;100.00;98720.19;6231988;23;20020;-95
2024/01/02 00:59:23;;;;;;;11.23;5.13;;;;;;;5.58;100.00;98671.19;6231028;23;20028;-95
2024/01/02 01:01:51;;;;;;;12.75;5.30;;;;;;;5.67;100.00;98673.72;6231240;23;20316;-95
2024/01/02 01:04:17;;;;;;;13.00;5.00;;;;;;;5.63;100.00;98664.09;6231948;23;20020;-94
2024/01/02 01:06:45;;;;;;;9.93;4.35;;;;;;;6.13;100.00;98765.72;6232442;23;20036;-96
2024/01/02 01:09:14;;;;;;;11.77;5.20;;;;;;;5.55;100.00;98672.94;6233784;23;20024;-94
2024/01/02 01:11:44;;;;;;;8.48;4.35;;;;;;;5.69;100.00;98678.09;6257780;23;20028;-94
2024/01/02 01:14:12;;;;;;;9.63;4.20;;;;;;;5.65;100.00;98672.88;6232843;23;20013;-95
2024/01/02 01:16:42;;;;;;;9.10;4.63;;;;;;;5.40;100.00;98672.19;6233311;23;20020;-95
2024/01/02 01:19:14;;;;;;;9.90;4.70;;;;;;;5.81;100.00;98716.69;6232399;23;20005;-95
2024/01/02 01:21:43;;;;;;;12.85;5.78;;;;;;;5.70;100.00;98698.34;6258338;23;20454;-96
2024/01/02 01:24:13;;;;;;;9.02;5.32;;;;;;;5.84;100.00;98716.66;6257813;23;20009;-96
2024/01/02 01:26:41;;;;;;;11.50;4.53;;;;;;;5.65;100.00;98686.06;6257994;22;20032;-94
2024/01/02 01:29:10;;;;;;;12.05;5.05;;;;;;;5.69;100.00;98693.06;6233467;23;20029;-95
2024/01/02 01:31:39;;;;;;;11.00;5.50;;;;;;;5.66;100.00;98685.16;6233270;23;20023;-96
2024/01/02 01:34:08;;;;;;;10.75;5.05;;;;;;;5.72;100.00;98687.75;6232937;23;20021;-95
2024/01/02 01:36:36;;;;;;;13.07;5.15;;;;;;;5.97;100.00;98739.44;6233517;23;20028;-96
2024/01/02 01:39:08;;;;;;;10.15;5.18;;;;;;;5.75;100.00;98717.63;6232729;23;20103;-95
2024/01/02 01:41:36;;;;;;;10.10;5.05;;;;;;;5.95;100.00;98732.44;6233713;23;20044;-96
2024/01/02 01:44:05;;;;;;;8.60;5.40;;;;;;;5.91;100.00;98710.44;6232278;23;20043;-96
2024/01/02 01:46:44;;;;;;;10.52;5.10;;;;;;;6.05;100.00;98720.00;6258264;23;20017;-95
2024/01/02 01:49:12;;;;;;;17.08;5.28;;;;;;;6.10;100.00;98731.44;6232317;23;20017;-95
2024/01/02 01:51:43;;;;;;;13.65;5.88;;;;;;;6.06;100.00;98725.28;6232744;23;20085;-95
2024/01/02 01:54:12;;;;;;;11.00;5.80;;;;;;;6.14;100.00;98735.78;6233272;23;20027;-96
2024/01/02 01:56:42;;;;;;;17.70;5.85;;;;;;;6.26;100.00;98745.34;6233148;23;19993;-94
2024/01/02 01:59:09;;;;;;;;;;;;;;;6.82;100.00;98825.75;6233901;23;20020;-94
2024/01/02 02:01:44;;;;;;;11.70;4.95;;;;;;;6.31;100.00;98733.84;6233230;23;19916;-94
2024/01/02 02:04:21;;;;;;;17.92;5.32;;;;;;;6.44;100.00;98731.06;6233436;23;20080;-94
2024/01/02 02:06:49;;;;;;;10.13;5.18;;;;;;;6.46;100.00;98732.81;6231912;23;20028;-94
2024/01/02 02:09:19;;;;;;;9.32;5.55;;;;;;;6.53;100.00;98736.25;6232435;23;20016;-96
2024/01/02 02:11:47;;;;;;;;;;;;;;;7.11;100.00;98825.44;6233181;23;20017;-96
2024/01/02 02:14:17;;;;;;;9.45;5.15;;;;;;;6.47;100.00;98728.41;6233395;23;19916;-96
2024/01/02 02:16:50;;;;;;;11.80;5.95;;;;;;;6.37;100.00;98724.97;6232694;23;20031;-95
2024/01/02 02:19:17;;;;;;;12.32;5.70;;;;;;;6.23;100.00;98724.25;6233663;23;20021;-95
2024/01/02 02:21:46;;;;;;;12.93;5.45;;;;;;;6.52;100.00;98739.78;6234128;23;20051;-95
2024/01/02 02:24:16;;;;;;;11.00;5.72;;;;;;;6.51;100.00;98748.63;6233909;23;20027;-94
2024/01/02 02:26:42;;;;;;;10.88;5.50;;;;;;;6.42;100.00;98735.47;6258717;23;20027;-94
2024/01/02 02:29:17;;;;;;;14.93;6.18;;;;;;;6.14;100.00;98710.25;6234091;23;20155;-95
2024/01/02 02:31:45;;;;;;;10.15;5.63;;;;;;;6.16;100.00;98713.75;6233374;23;20023;-96
2024/01/02 02:34:13;;;;;;;10.82;5.45;;;;;;;6.08;100.00;98725.28;6232726;23;20044;-95
2024/01/02 02:36:39;;;;;;;9.60;5.13;;;;;;;6.14;100.00;98755.13;6232549;23;20028;-96
2024/01/02 02:39:09;;;;;;;10.55;4.97;;;;;;;5.97;100.00;98728.03;6233585;23;20001;-95
2024/01/02 02:41:38;;;;;;;8.88;4.57;;;;;;;6.14;100.00;98760.41;6233569;23;20087;-95
2024/01/02 02:44:07;;;;;;;11.00;5.28;;;;;;;5.76;100.00;98703.53;6233488;23;20021;-96
2024/01/02 02:46:33;;;;;;;11.73;4.78;;;;;;;5.85;100.00;98713.13;6231916;23;20021;-95
2024/01/02 02:49:08;;;;;;;10.02;4.90;;;;;;;5.62;100.00;98694.88;6233240;23;20004;-95
2024/01/02 02:51:43;;;;;;;7.95;4.75;;;;;;;5.83;100.00;98743.06;6233880;23;20032;-96
2024/01/02 02:54:15;;;;;;;8.43;4.15;;;;;;;5.47;100.00;98701.16;6233746;23;20020;-94
2024/01/02 02:56:46;;;;;;;12.32;4.70;;;;;;;5.52;100.00;98694.06;6234041;23;20065;-96
2024/01/02 02:59:13;;;;;;;15.05;5.57;;;;;;;5.26;100.00;98674.94;6231585;23;20027;-95
2024/01/02 03:01:41;;;;;;;12.88;5.40;;;;;;;5.40;100.00;98703.81;6234673;23;20048;-94
2024/01/02 03:04:14;;;;;;;10.20;4.88;;;;;;;5.32;100.00;98686.31;6234669;23;20070;-95
2024/01/02 03:06:47;;;;;;;16.73;5.75;;;;;;;5.41;100.00;98727.56;6235511;23;20025;-95
2024/01/02 03:09:14;;;;;;;11.85;5.75;;;;;;;5.24;100.00;98706.56;6236448;23;20020;-95
2024/01/02 03:11:45;;;;;;;15.55;6.70;;;;;;;5.76;100.00;98787.97;6234706;23;20016;-96
2024/01/02 03:14:12;;;;;;;13.18;5.13;;;;;;;5.37;100.00;98710.00;6232959;23;20067;-95
2024/01/02 03:16:42;;;;;;;10.13;5.40;;;;;;;5.35;100.00;98714.41;6234539;23;20404;-94
2024/01/02 03:19:11;;;;;;;13.88;5.68;;;;;;;5.34;100.00;98717.94;6233901;23;20020;-95
2024/01/02 03:21:43;;;;;;;8.90;4.43;;;;;;;5.22;100.00;98708.34;6235140;23;20004;-94
2024/01/02 03:24:09;;;;;;;12.50;5.05;;;;;;;5.05;100.00;98705.84;6232842;23;20020;-95
2024/01/02 03:26:40;;;;;;;13.07;4.97;;;;;;;5.06;100.00;98693.53;6232057;23;20083;-95
2024/01/02 03:29:11;;;;;;;8.75;4.28;;;;;;;5.19;100.00;98697.84;6232499;23;20044;-95
2024/01/02 03:31:40;;;;;;;8.48;3.65;;;;;;;5.31;100.00;98710.94;6232629;23;20021;-96
2024/01/02 03:34:09;;;;;;;8.38;3.83;;;;;;;5.30;100.00;98703.91;6230951;23;20017;-96
2024/01/02 03:36:41;;;;;;;7.25;4.40;;;;;;;5.60;100.00;98738.84;6232804;23;20017;-96
2024/01/02 03:39:12;;;;;;;7.55;4.05;;;;;;;5.43;100.00;98711.72;6232667;23;20047;-94
2024/01/02 03:41:39;;;;;;;11.45;3.42;;;;;;;5.40;100.00;98724.91;6232620;23;20028;-95
2024/01/02 03:44:23;;;;;;;8.35;4.22;;;;;;;5.78;100.00;98787.97;6233684;23;20009;-95
2024/01/02 03:46:56;;;;;;;12.32;4.35;;;;;;;5.76;100.00;98795.00;6234107;23;20043;-95
2024/01/02 03:49:28;;;;;;;7.10;4.22;;;;;;;5.42;100.00;98734.59;6233216;23;20081;-95
2024/01/02 03:51:57;;;;;;;8.65;3.60;;;;;;;5.24;100.00;98701.31;6232626;23;20025;-96
2024/01/02 03:54:30;;;;;;;13.73;4.35;;;;;;;5.19;100.00;98699.59;6231254;23;20017;-96
2024/01/02 03:56:56;;;;;;;8.98;3.58;;;;;;;5.29;100.00;98714.44;6232967;23;20020;-94
2024/01/02 03:59:29;;;;;;;7.40;3.65;;;;;;;5.66;100.00;98796.84;6233389;23;20017;-95
2024/01/02 04:01:55;;;;;;;8.00;3.55;;;;;;;5.24;100.00;98688.13;6233487;23;20012;-95
2024/01/02 04:04:22;;;;;;;8.07;4.10;;;;;;;5.15;100.00;98696.97;6233289;23;20003;-95
2024/01/02 04:06:49;;;;;;;8.35;4.25;;;;;;;4.91;100.00;98689.22;6233967;23;20031;-95
2024/01/02 04:09:15;;;;;;;9.95;4.55;;;;;;;5.05;100.00;98705.84;6233046;23;20024;-96
2024/01/02 04:11:49;;;;;;;8.10;4.40;;;;;;;5.00;100.00;98704.09;6232039;23;20020;-96
2024/01/02 04:14:17;;;;;;;13.68;4.47;;;;;;;5.14;100.00;98721.59;6232904;23;20403;-96
2024/01/02 04:16:45;;;;;;;13.48;4.93;;;;;;;5.01;100.00;98704.09;6233595;23;20016;-95
2024/01/02 04:19:13;;;;;;;8.75;4.45;;;;;;;5.04;100.00;98705.84;6233306;23;20017;-95
2024/01/02 04:21:40;;;;;;;11.63;4.95;;;;;;;5.05;100.00;98707.56;6233911;23;20017;-96
2024/01/02 04:24:09;;;;;;;17.95;4.60;;;;;;;5.55;100.00;98789.00;6234009;23;20020;-95
2024/01/02 04:26:42;;;;;;;12.65;4.60;;;;;;;5.15;100.00;98712.78;6259608;22;20044;-96
2024/01/02 04:29:19;;;;;;;11.15;5.35;;;;;;;5.36;100.00;98808.47;6235141;23;20020;-96
2024/01/02 04:31:49;;;;;;;11.80;5.13;;;;;;;5.35;100.00;98761.88;6234944;23;20017;-94
2024/01/02 04:34:20;;;;;;;;;;;;;;;5.67;100.00;98813.56;6236620;23;20043;-95
2024/01/02 04:36:51;;;;;;;9.88;4.05;;;;;;;5.13;100.00;98722.47;6233714;23;19915;-95
2024/01/02 04:39:22;;;;;;;12.13;4.13;;;;;;;5.14;100.00;98720.72;6234075;23;20081;-94
2024/01/02 04:41:52;;;;;;;10.52;4.63;;;;;;;5.30;100.00;98745.22;6234009;23;20027;-95
2024/01/02 04:44:21;;;;;;;9.13;4.25;;;;;;;5.24;100.00;98739.97;6234186;23;20016;-94
2024/01/02 04:46:51;;;;;;;8.27;4.53;;;;;;;5.43;100.00;98753.94;6232621;23;20020;-95
2024/01/02 04:49:23;;;;;;;9.20;4.00;;;;;;;5.20;100.00;98740.88;6234610;23;20064;-95
2024/01/02 04:51:51;;;;;;;9.05;4.68;;;;;;;5.56;100.00;98816.25;6234789;23;20028;-95
2024/01/02 04:54:30;;;;;;;6.38;4.07;;;;;;;5.09;100.00;98752.34;6234179;23;20032;-96
2024/01/02 04:56:58;;;;;;;9.32;4.57;;;;;;;5.18;100.00;98734.75;6234706;23;20044;-94
2024/01/02 04:59:26;;;;;;;5.97;4.05;;;;;;;5.18;100.00;98750.56;6234843;23;20020;-94
2024/01/02 05:02:00;;;;;;;9.85;4.13;;;;;;;5.21;100.00;98734.75;6260334;22;20019;-94
2024/01/02 05:04:33;;;;;;;7.10;3.65;;;;;;;5.34;100.00;98736.41;6236330;23;20039;-95
2024/01/02 05:07:03;;;;;;;11.75;5.18;;;;;;;5.43;100.00;98762.72;6235229;23;20461;-96
2024/01/02 05:09:31;;;;;;;10.27;4.68;;;;;;;5.18;100.00;98729.47;6235334;23;20023;-96
2024/01/02 05:12:02;;;;;;;6.32;3.67;;;;;;;5.21;100.00;98721.56;6235804;23;20382;-94
2024/01/02 05:14:30;;;;;;;7.88;4.40;;;;;;;5.31;100.00;98744.31;6234450;23;20016;-95
2024/01/02 05:17:09;;;;;;;9.00;3.67;;;;;;;5.23;100.00;98741.75;6235449;23;20013;-94
2024/01/02 05:19:36;;;;;;;11.85;4.53;;;;;;;5.85;100.00;98829.25;6235001;23;20017;-93
2024/01/02 05:22:06;;;;;;;11.70;4.47;;;;;;;5.14;100.00;98718.09;6234807;23;20027;-95
2024/01/02 05:24:36;;;;;;;6.70;4.05;;;;;;;5.22;100.00;98732.06;6259694;22;20020;-96
2024/01/02 05:27:03;;;;;;;;;;;;;;;5.82;100.00;98825.78;6234480;23;20072;-95
2024/01/02 05:29:29;;;;;;;13.10;4.50;;;;;;;5.21;100.00;98734.75;6234910;23;19895;-96
2024/01/02 05:32:06;;;;;;;9.43;3.80;;;;;;;5.87;100.00;98831.88;6234301;23;20059;-95
2024/01/02 05:34:34;;;;;;;6.18;3.85;;;;;;;5.39;100.00;98726.69;6235898;23;20032;-95
2024/01/02 05:37:12;;;;;;;;;;;;;;;5.83;100.00;98831.00;6236253;23;20020;-94
2024/01/02 05:39:45;;;;;;;5.95;3.17;;;;;;;5.81;100.00;98835.41;6234919;23;19912;-95
2024/01/02 05:42:16;;;;;;;7.22;3.53;;;;;;;5.46;100.00;98781.13;6232842;23;20089;-96
2024/01/02 05:44:47;;;;;;;6.30;3.50;;;;;;;5.48;100.00;98760.03;6233486;23;20024;-95
2024/01/02 05:47:16;;;;;;;7.05;3.53;;;;;;;5.97;100.00;98837.13;6233026;23;20043;-96
2024/01/02 05:49:45;;;;;;;8.63;3.78;;;;;;;5.26;100.00;98747.00;6258397;22;20084;-94
2024/01/02 05:52:14;;;;;;;7.97;4.00;;;;;;;5.22;100.00;98757.56;6235980;23;20020;-96
2024/01/02 05:54:47;;;;;;;7.80;4.05;;;;;;;5.14;100.00;98755.00;6237354;23;20021;-95
2024/01/02 05:57:18;;;;;;;9.50;4.00;;;;;;;5.55;100.00;98831.22;6238773;23;20017;-94
2024/01/02 05:59:56;;;;;;;6.60;3.50;;;;;;;5.30;100.00;98806.72;6239874;23;20381;-94
2024/01/02 06:02:55;;;;;;;9.23;3.85;;;;;;;5.08;100.00;98778.75;6238541;23;20013;-95
2024/01/02 06:05:24;;;;;;;7.32;4.07;;;;;;;4.99;100.00;98769.13;6233748;23;20024;-96
2024/01/02 06:07:53;;;;;;;10.07;4.32;;;;;;;5.04;100.00;98761.19;6244526;23;20000;-95
2024/01/02 06:10:36;;;;;;;8.63;4.28;;;;;;;4.92;100.00;98756.84;6270289;22;20023;-94
2024/01/02 06:16:31;;;;;;;9.85;4.15;;;;;;;4.96;100.00;98784.06;6231814;23;20077;-94
2024/01/02 06:19:07;;;;;;;8.15;4.65;;;;;;;5.37;100.00;98867.34;6241822;23;20012;-94
2024/01/02 06:21:38;;;;;;;10.00;4.97;;;;;;;4.79;100.00;98782.34;6243460;23;20088;-96
2024/01/02 06:24:24;;;;;;;9.10;4.47;;;;;;;5.18;100.00;98850.72;6237394;23;20016;-96
2024/01/02 06:26:55;;;;;;;11.73;4.50;;;;;;;4.84;100.00;98790.25;6269028;23;20031;-95
2024/01/02 06:29:27;;;;;;;18.95;5.55;;;;;;;4.93;100.00;98804.25;6239963;23;20012;-96
2024/01/02 06:31:53;;;;;;;11.70;5.60;;;;;;;5.01;100.00;98790.16;6238528;23;20016;-95
2024/01/02 06:34:29;;;;;;;13.88;5.18;;;;;;;4.88;100.00;98784.97;6263979;23;20016;-94
2024/01/02 06:36:58;;;;;;;8.30;5.07;;;;;;;5.44;100.00;98850.59;6238850;23;20071;-94
2024/01/02 06:39:25;;;;;;;16.30;6.07;;;;;;;5.30;100.00;98837.50;6238091;23;20081;-94
2024/01/02 06:41:57;;;;;;;14.35;6.03;;;;;;;5.21;100.00;98816.47;6239402;23;20094;-95
2024/01/02 06:44:23;;;;;;;13.48;5.43;;;;;;;5.20;100.00;98820.84;6227291;23;20402;-94
2024/01/02 06:46:48;;;;;;;16.70;4.75;;;;;;;5.55;100.00;98856.69;6226495;23;20027;-95
2024/01/02 06:49:14;;;;;;;9.60;5.03;;;;;;;5.42;100.00;98839.19;6225988;22;20020;-95
2024/01/02 06:51:42;;;;;;;8.25;4.05;;;;;;;5.28;100.00;98818.19;6225660;23;20530;-94
2024/01/02 06:54:08;;;;;;;11.63;4.22;;;;;;;5.44;100.00;98822.47;6223762;23;20024;-96
2024/01/02 06:56:34;;;;;;;8.93;3.45;;;;;;;5.27;100.00;98821.69;6224944;23;20070;-94
2024/01/02 06:58:59;;;;;;;10.02;3.83;;;;;;;5.42;100.00;98876.09;6225023;23;20026;-95
2024/01/02 07:01:25;;;;;;;9.73;3.80;;;;;;;5.34;100.00;98865.63;6225038;23;20033;-94
2024/01/02 07:03:51;;;;;;;6.38;3.58;;;;;;;5.12;100.00;98836.69;6226680;23;20020;-95
2024/01/02 07:06:17;;;;;;;7.93;3.25;;;;;;;5.48;100.00;98860.25;6220584;22;20032;-94
2024/01/02 07:08:45;;;;;;;11.10;3.85;;;;;;;5.33;100.00;98838.38;6220609;23;20075;-95
2024/01/02 07:11:11;;;;;;;9.98;4.63;;;;;;;5.22;100.00;98861.25;6222575;23;20052;-93
2024/01/02 07:13:37;;;;;;;15.98;5.70;;;;;;;5.60;100.00;98909.47;6225832;23;20021;-94
2024/01/02 07:16:04;;;;;;;12.73;4.35;;;;;;;5.22;100.00;98855.09;6232201;23;20021;-95
2024/01/02 07:18:33;;;;;;;8.75;4.05;;;;;;;5.45;100.00;98861.16;6231271;23;20458;-95
2024/01/02 07:21:00;;;;;;;11.75;4.35;;;;;;;5.37;100.00;98862.94;6231577;23;20032;-96
2024/01/02 07:23:26;;;;;;;16.23;3.80;;;;;;;5.55;100.00;98883.97;6231107;23;20036;-95
2024/01/02 07:25:54;;;;;;;10.30;4.32;;;;;;;5.69;100.00;98912.91;6230982;23;20043;-96
2024/01/02 07:28:23;;;;;;;10.10;3.90;;;;;;;5.50;100.00;98883.09;6231439;23;20017;-95
2024/01/02 07:30:50;;;;;;;8.43;4.00;;;;;;;5.66;100.00;98912.94;6231914;23;20116;-95
2024/01/02 07:33:24;;;;;;;12.77;5.03;;;;;;;5.61;100.00;98887.44;6231409;23;20059;-95
2024/01/02 07:35:55;;;;;;;10.38;4.78;;;;;;;5.63;100.00;98890.97;6230913;23;20017;-96
2024/01/02 07:38:25;;;;;;;10.95;4.60;;;;;;;5.70;100.00;98898.84;6226942;23;20447;-95
2024/01/02 07:40:54;;;;;;;12.63;4.40;;;;;;;5.72;100.00;98877.72;6223954;23;20044;-95
2024/01/02 07:43:23;;;;;;;13.43;4.55;;;;;;;5.95;100.00;98894.31;6250539;22;20013;-96
2024/01/02 07:45:56;;;;;;;14.23;5.63;;;;;;;5.99;100.00;98889.91;6224767;23;20067;-95
2024/01/02 07:48:25;;;;;;;9.00;4.80;;;;;;;6.01;100.00;98893.41;6223979;23;20020;-95
2024/01/02 07:51:02;;;;;;;9.23;4.35;;;;;;;6.33;100.00;98948.66;6225205;23;20017;-95
2024/01/02 07:53:35;;;;;;;14.15;4.47;;;;;;;6.05;100.00;98896.88;6223893;23;20108;-96
2024/01/02 07:56:08;;;;;;;16.55;4.78;;;;;;;5.93;100.00;98900.47;6223382;23;20021;-94
2024/01/02 07:58:54;;;;;;;;;;;;;;;;;;;;;
2024/01/02 08:01:29;;;;;;;9.27;4.55;;;;;;;6.08;100.00;98937.34;6247783;23;20017;-96
2024/01/02 08:03:58;;;;;;;13.20;5.18;;;;;;;5.84;100.00;98900.53;6225147;23;20024;-94
2024/01/02 08:06:31;;;;;;;11.45;5.53;;;;;;;6.18;100.00;98943.47;6223605;23;20024;-96
2024/01/02 08:09:18;;;;;;;13.63;5.40;;;;;;;5.85;100.00;98891.72;6224132;23;20021;-96
2024/01/02 08:11:50;;;;;;;10.35;5.25;;;;;;;5.90;100.00;98879.38;6225658;23;20047;-96
2024/01/02 08:14:28;;;;;;;10.48;5.50;;;;;;;6.01;100.00;98874.03;6223301;23;20012;-96
2024/01/02 08:17:09;;;;;;;9.98;5.43;;;;;;;6.31;100.00;98875.56;6223203;23;20066;-95
2024/01/02 08:19:39;;;;;;;13.55;5.60;;;;;;;6.45;100.00;98894.81;6223761;23;20080;-95
2024/01/02 08:22:08;;;;;;;10.02;5.45;;;;;;;6.51;100.00;98891.28;6222364;23;20016;-96
2024/01/02 08:24:34;;;;;;;12.25;5.90;;;;;;;6.67;100.00;98906.06;6223282;23;20073;-95
2024/01/02 08:27:00;;;;;;;12.90;6.47;;;;;;;6.47;100.00;98871.03;6223635;23;20158;-94
2024/01/02 08:29:35;;;;;;;15.63;7.80;;;;;;;6.55;100.00;98874.50;6225563;23;20420;-95
2024/01/02 08:32:01;;;;;;;14.48;6.22;;;;;;;6.97;100.00;98941.03;6224694;23;20031;-96
2024/01/02 08:34:32;;;;;;;16.90;7.10;;;;;;;6.73;100.00;98882.25;6224565;23;20486;-95
2024/01/02 08:36:58;;;;;;;15.23;7.90;;;;;;;7.03;100.00;98942.78;6224366;23;20017;-96
2024/01/02 08:39:24;;;;;;;19.80;7.90;;;;;;;6.70;100.00;98884.94;6225641;23;20021;-95
2024/01/02 08:41:50;;;;;;;17.80;7.90;;;;;;;6.67;100.00;98887.56;6223628;23;20028;-96
2024/01/02 08:44:19;;;;;;;24.95;8.27;;;;;;;6.95;100.00;98895.25;6223740;23;20017;-96
2024/01/02 08:46:48;;;;;;;25.92;9.48;;;;;;;7.01;100.00;98903.13;6199532;23;20040;-95
2024/01/02 08:49:14;;;;;;;18.13;8.18;;;;;;;6.86;100.00;98887.41;6224093;23;20421;-95
2024/01/02 08:51:46;;;;;;;22.88;9.35;;;;;;;7.07;100.00;98926.84;6225141;23;20017;-96
2024/01/02 08:54:15;;;;;;;17.92;10.52;;;;;;;7.15;100.00;98922.34;6225196;23;20024;-96
2024/01/02 08:56:46;;;;;;;21.52;10.90;;;;;;;7.33;100.00;98945.09;6222917;23;20020;-96
2024/01/02 08:59:16;;;;;;;16.90;7.95;;;;;;;7.23;100.00;98911.69;6249977;23;20024;-95
2024/01/02 09:01:51;;;;;;;16.77;8.75;;;;;;;7.48;100.00;98907.00;6223780;23;20020;-95
2024/01/02 09:04:20;;;;;;;19.77;9.48;;;;;;;7.71;100.00;98940.22;6224092;23;20021;-95
2024/01/02 09:06:48;;;;;;;16.38;8.98;;;;;;;7.54;100.00;98916.59;6224055;23;20031;-96
2024/01/02 09:09:15;;;;;;;20.88;9.45;;;;;;;7.64;100.00;98927.97;6225002;23;20012;-96
2024/01/02 09:12:01;;;;;;;28.55;12.18;;;;;;;7.73;100.00;98919.91;6224300;23;20020;-96
2024/01/02 09:14:27;;;;;;;23.55;11.45;;;;;;;7.77;100.00;98930.41;6224475;23;20108;-96
2024/01/02 09:17:01;;;;;;;30.67;12.98;;;;;;;7.84;100.00;98957.69;6250063;22;20017;-95
2024/01/02 09:19:27;;;;;;;28.13;12.07;;;;;;;7.82;100.00;98933.00;6224851;23;20019;-96
2024/01/02 09:21:54;;;;;;;29.70;12.82;;;;;;;7.79;100.00;98915.41;6224592;23;20104;-96
2024/01/02 09:24:23;;;;;;;25.25;11.82;;;;;;;7.66;100.00;98910.28;6225067;23;20026;-96
2024/01/02 09:26:54;;;;;;;27.40;11.98;;;;;;;7.69;100.00;98904.94;6227387;23;20039;-95
2024/01/02 09:29:23;;;;;;;29.15;12.82;;;;;;;7.87;100.00;98894.13;6252526;23;20020;-96
2024/01/02 09:31:49;;;;;;;24.27;12.25;;;;;;;8.20;100.00;98937.78;6223591;23;20017;-94
2024/01/02 09:34:19;;;;;;;25.92;10.93;;;;;;;8.79;100.00;98995.22;6248431;23;20051;-94
2024/01/02 09:36:45;;;;;;;;;;;;;;;8.83;100.00;98987.16;6250515;23;20075;-94
2024/01/02 09:39:17;;;;;;;43.95;17.38;;;;;;;8.34;100.00;98900.44;6224439;23;19943;-95
2024/01/02 09:42:00;;;;;;;43.72;19.92;;;;;;;8.56;100.00;98902.78;6246620;23;20018;-95
2024/01/02 09:44:40;;;;;;;37.05;17.90;;;;;;;8.67;100.00;98937.06;6220663;23;20028;-96
2024/01/02 09:47:23;;;;;;;51.03;20.48;;;;;;;8.80;100.00;98979.28;6222964;23;20024;-95
2024/01/02 09:49:59;;;;;;;37.72;18.38;;;;;;;8.42;100.00;98892.44;6255237;23;20016;-93
2024/01/02 09:52:47;;;;;;;29.02;14.55;;;;;;;8.10;100.00;98887.59;6254925;23;20025;-95
2024/01/02 09:55:27;;;;;;;34.35;14.38;;;;;;;8.14;100.00;98879.56;6254345;23;20037;-94
2024/01/02 09:58:06;;;;;;;25.50;12.55;;;;;;;8.19;100.00;98887.44;6255551;23;20028;-95
2024/01/02 10:00:50;;;;;;;31.25;13.98;;;;;;;8.68;100.00;98950.31;6229998;23;20000;-95
2024/01/02 10:03:50;;;;;;;24.83;11.98;;;;;;;8.27;100.00;98882.91;6230257;23;20518;-96
2024/01/02 10:06:52;;;;;;;19.60;10.93;;;;;;;9.01;100.00;98954.16;6231155;23;20092;-94
2024/01/02 10:09:44;;;;;;;22.40;12.23;;;;;;;8.47;100.00;98855.25;6223919;23;20016;-95
2024/01/02 10:12:24;;;;;;;21.92;10.38;;;;;;;8.20;100.00;98854.78;6254850;23;20020;-93
2024/01/02 10:15:13;;;;;;;18.95;9.75;;;;;;;8.27;100.00;98853.78;6256463;23;20013;-95
2024/01/02 10:17:56;;;;;;;20.27;10.55;;;;;;;8.58;100.00;98845.31;6230809;23;20016;-95
2024/01/02 10:20:31;;;;;;;18.25;10.73;;;;;;;8.30;100.00;98835.16;6231048;23;20017;-94
2024/01/02 10:23:10;;;;;;;17.70;9.48;;;;;;;8.42;100.00;98840.28;6256200;22;20031;-95
2024/01/02 10:25:42;;;;;;;20.50;10.50;;;;;;;8.47;100.00;98849.94;6230914;23;20040;-95
2024/01/02 10:28:18;;;;;;;23.65;10.07;;;;;;;8.67;100.00;98873.44;6256479;22;20017;-95
2024/01/02 10:31:01;;;;;;;21.88;10.60;;;;;;;8.52;100.00;98834.81;6257726;22;20017;-95
2024/01/02 10:33:48;;;;;;;24.67;12.10;;;;;;;8.42;100.00;98824.41;6256669;23;20027;-95
2024/01/02 10:36:26;;;;;;;20.48;10.55;;;;;;;8.66;100.00;98822.22;6257088;22;20028;-96
2024/01/02 10:39:05;;;;;;;16.63;10.45;;;;;;;8.64;100.00;98802.81;6257241;23;20103;-96
2024/01/02 10:41:41;;;;;;;;;;;;;;;9.37;100.00;98897.78;6232887;23;20017;-95
2024/01/02 10:44:18;;;;;;;17.52;9.18;;;;;;;8.97;100.00;98821.63;6230256;23;19916;-95
2024/01/02 10:46:47;;;;;;;17.38;9.38;;;;;;;8.95;100.00;98812.81;6229948;23;20017;-94
2024/01/02 10:49:31;;;;;;;21.00;11.13;;;;;;;8.74;100.00;98803.50;6231886;23;20067;-94
2024/01/02 10:52:05;;;;;;;18.80;9.68;;;;;;;9.19;100.00;98865.38;6255640;22;20107;-94
2024/01/02 10:54:56;;;;;;;20.98;9.18;;;;;;;9.54;100.00;98890.34;6255989;23;20017;-95
2024/01/02 10:57:42;;;;;;;20.75;10.35;;;;;;;9.41;100.00;98820.72;6230844;23;20017;-95
2024/01/02 11:00:22;;;;;;;20.25;10.43;;;;;;;9.46;100.00;98828.56;6230931;23;20021;-95
2024/01/02 11:02:58;;;;;;;20.95;11.40;;;;;;;9.33;100.00;98830.59;6229452;23;20024;-96
2024/01/02 11:05:40;;;;;;;17.33;10.85;;;;;;;9.20;100.00;98800.81;6257826;22;20016;-96
2024/01/02 11:08:14;;;;;;;17.05;9.80;;;;;;;9.41;100.00;98822.47;6236783;23;20031;-96
2024/01/02 11:11:04;;;;;;;18.92;9.60;;;;;;;9.59;100.00;98843.31;6236322;23;20096;-96
2024/01/02 11:13:34;;;;;;;19.02;10.15;;;;;;;9.58;100.00;98820.31;6236992;23;20030;-95
2024/01/02 11:16:06;;;;;;;16.25;9.43;;;;;;;9.99;100.00;98862.78;6236925;23;20023;-95
2024/01/02 11:18:44;;;;;;;16.50;9.00;;;;;;;10.11;100.00;98861.66;6237335;23;20027;-96
2024/01/02 11:21:20;;;;;;;22.98;11.20;;;;;;;9.77;100.00;98804.84;6236329;23;20012;-95
2024/01/02 11:23:49;;;;;;;18.80;9.50;;;;;;;10.28;100.00;98870.09;6234971;23;20020;-95
2024/01/02 11:26:28;;;;;;;19.42;9.43;;;;;;;10.30;100.00;98875.38;6236830;23;20020;-94
2024/01/02 11:29:00;;;;;;;18.40;10.75;;;;;;;9.95;100.00;98811.50;6261857;23;20107;-96
2024/01/02 11:31:45;;;;;;;18.55;9.75;;;;;;;9.87;100.00;98810.84;6263740;23;20024;-95
2024/01/02 11:34:30;;;;;;;20.75;10.20;;;;;;;9.90;100.00;98821.38;6237055;23;20012;-95
2024/01/02 11:37:08;;;;;;;21.50;10.38;;;;;;;9.82;100.00;98804.75;6235863;23;20019;-96
2024/01/02 11:39:44;;;;;;;23.95;12.00;;;;;;;9.77;100.00;98796.00;6236369;23;20023;-95
2024/01/02 11:42:26;;;;;;;22.63;10.48;;;;;;;10.39;100.00;98883.16;6236723;23;20027;-93
2024/01/02 11:45:08;;;;;;;18.75;10.27;;;;;;;9.84;100.00;98798.47;6235703;23;20016;-94
2024/01/02 11:47:41;;;;;;;21.58;11.32;;;;;;;9.97;100.00;98803.50;6235890;23;20020;-96
2024/01/02 11:50:08;;;;;;;31.35;13.23;;;;;;;9.99;100.00;98785.75;6226614;23;20020;-96
2024/01/02 11:52:57;;;;;;;25.73;12.57;;;;;;;10.24;100.00;98801.97;6226102;23;20020;-95
2024/01/02 11:55:36;;;;;;;28.90;13.20;;;;;;;10.58;100.00;98835.69;6224754;23;20342;-94